createdAt,value
2019-03-25T00:01:23.995Z,101681.13
2019-03-25T00:03:56.152Z,101682.84
2019-03-25T00:06:28.173Z,101672.08
2019-03-25T00:09:05.419Z,101665.33
2019-03-25T00:11:34.131Z,101661.94
2019-03-25T00:14:06.528Z,101657.55
2019-03-25T00:16:38.617Z,101656.27
2019-03-25T00:19:10.743Z,101652.75
2019-03-25T00:21:43.000Z,101644.70
2019-03-25T00:24:15.072Z,101643.84
2019-03-25T00:26:47.253Z,101640.63
2019-03-25T00:29:19.330Z,101637.88
2019-03-25T00:31:51.492Z,101637.77
2019-03-25T00:34:23.919Z,101632.48
2019-03-25T00:36:56.118Z,101621.98
2019-03-25T00:39:28.249Z,101613.77
2019-03-25T00:42:00.392Z,101613.45
2019-03-25T00:44:32.790Z,101609.98
2019-03-25T00:47:05.190Z,101597.34
2019-03-25T00:49:37.390Z,101589.73
2019-03-25T00:52:12.699Z,101591.72
2019-03-25T00:54:50.054Z,101589.41
2019-03-25T00:57:18.625Z,101581.64
2019-03-25T00:59:53.153Z,101579.55
2019-03-25T01:02:25.284Z,101576.20
2019-03-25T01:04:57.345Z,101567.27
2019-03-25T01:07:29.414Z,101563.09
2019-03-25T01:10:01.739Z,101559.86
2019-03-25T01:12:33.902Z,101556.23
2019-03-25T01:15:06.374Z,101547.73
2019-03-25T01:17:38.591Z,101547.16
2019-03-25T01:20:11.658Z,101545.91
2019-03-25T01:22:43.803Z,101538.86
2019-03-25T01:25:15.967Z,101534.19
2019-03-25T01:27:48.144Z,101531.81
2019-03-25T01:30:20.356Z,101526.16
2019-03-25T01:32:52.613Z,101522.80
2019-03-25T01:35:24.569Z,101515.59
2019-03-25T01:37:56.682Z,101517.05
2019-03-25T01:40:28.846Z,101503.45
2019-03-25T01:43:01.013Z,101504.30
2019-03-25T01:45:33.785Z,101506.23
2019-03-25T01:48:06.003Z,101499.60
2019-03-25T01:50:38.078Z,101492.05
2019-03-25T01:53:10.303Z,101491.94
2019-03-25T01:55:42.293Z,101487.23
2019-03-25T01:58:14.486Z,101491.94
2019-03-25T02:00:46.473Z,101492.30
2019-03-25T02:03:18.754Z,101485.67
2019-03-25T02:05:50.921Z,101485.67
2019-03-25T02:08:22.901Z,101480.25
2019-03-25T02:10:55.079Z,101472.22
2019-03-25T02:13:27.201Z,101475.09
2019-03-25T02:15:59.299Z,101465.13
2019-03-25T02:18:31.376Z,101462.83
2019-03-25T02:21:06.627Z,101453.09
2019-03-25T02:23:38.796Z,101454.53
2019-03-25T02:26:10.956Z,101445.74
2019-03-25T02:28:43.026Z,101441.80
2019-03-25T02:31:15.214Z,101439.27
2019-03-25T02:33:47.333Z,101427.23
2019-03-25T02:36:19.535Z,101425.80
2019-03-25T02:38:51.572Z,101427.01
2019-03-25T02:41:23.789Z,101414.02
2019-03-25T02:43:55.891Z,101420.52
2019-03-25T02:46:28.116Z,101423.75
2019-03-25T02:49:00.306Z,101420.16
2019-03-25T02:51:32.499Z,101412.45
2019-03-25T02:54:04.472Z,101407.99
2019-03-25T02:56:36.587Z,101405.49
2019-03-25T02:59:08.803Z,101401.62
2019-03-25T03:01:40.884Z,101394.15
2019-03-25T03:04:13.022Z,101388.89
2019-03-25T03:06:45.132Z,101393.19
2019-03-25T03:09:17.260Z,101387.67
2019-03-25T03:11:49.389Z,101384.16
2019-03-25T03:14:21.543Z,101381.90
2019-03-25T03:16:53.613Z,101375.21
2019-03-25T03:19:25.764Z,101384.56
2019-03-25T03:21:57.817Z,101387.46
2019-03-25T03:24:29.997Z,101381.56
2019-03-25T03:27:01.988Z,101381.19
2019-03-25T03:29:34.126Z,101381.55
2019-03-25T03:32:06.311Z,101377.44
2019-03-25T03:34:38.647Z,101378.30
2019-03-25T03:37:10.800Z,101380.67
2019-03-25T03:39:43.216Z,101387.91
2019-03-25T03:42:15.281Z,101389.70
2019-03-25T03:44:47.466Z,101395.11
2019-03-25T03:47:19.647Z,101395.01
2019-03-25T03:49:51.870Z,101396.10
2019-03-25T03:52:24.189Z,101394.20
2019-03-25T03:54:56.493Z,101398.50
2019-03-25T03:57:29.159Z,101393.59
2019-03-25T04:00:02.637Z,101395.52
2019-03-25T04:02:34.687Z,101387.19
2019-03-25T04:05:06.941Z,101390.76
2019-03-25T04:07:39.098Z,101386.06
2019-03-25T04:10:11.913Z,101389.43
2019-03-25T04:12:44.299Z,101393.39
2019-03-25T04:15:26.662Z,101393.75
2019-03-25T04:17:59.755Z,101394.83
2019-03-25T04:20:32.049Z,101398.00
2019-03-25T04:23:04.173Z,101401.12
2019-03-25T04:25:36.204Z,101406.17
2019-03-25T04:28:08.248Z,101413.26
2019-03-25T04:30:40.215Z,101421.73
2019-03-25T04:33:12.372Z,101413.84
2019-03-25T04:35:44.425Z,101427.55
2019-03-25T04:38:16.566Z,101418.42
2019-03-25T04:40:48.681Z,101415.74
2019-03-25T04:43:20.852Z,101431.05
2019-03-25T04:45:52.885Z,101422.66
2019-03-25T04:48:24.985Z,101421.81
2019-03-25T04:50:57.075Z,101421.52
2019-03-25T04:53:29.117Z,101420.52
2019-03-25T04:56:01.208Z,101421.52
2019-03-25T04:58:33.296Z,101420.34
2019-03-25T05:01:08.438Z,101425.12
2019-03-25T05:03:40.554Z,101430.19
2019-03-25T05:06:12.674Z,101414.46
2019-03-25T05:08:44.717Z,101418.02
2019-03-25T05:11:16.851Z,101408.93
2019-03-25T05:13:48.925Z,101413.58
2019-03-25T05:16:21.347Z,101410.26
2019-03-25T05:18:53.663Z,101410.88
2019-03-25T05:21:25.796Z,101418.32
2019-03-25T05:23:57.848Z,101410.43
2019-03-25T05:26:30.096Z,101407.07
2019-03-25T05:29:02.134Z,101412.69
2019-03-25T05:31:34.311Z,101416.13
2019-03-25T05:34:06.380Z,101414.70
2019-03-25T05:36:38.377Z,101417.55
2019-03-25T05:39:11.522Z,101421.55
2019-03-25T05:41:43.589Z,101412.84
2019-03-25T05:44:15.591Z,101416.97
2019-03-25T05:46:47.667Z,101411.38
2019-03-25T05:49:19.865Z,101409.55
2019-03-25T05:51:51.998Z,101408.63
2019-03-25T05:54:24.119Z,101391.16
2019-03-25T05:57:02.370Z,101371.66
2019-03-25T05:59:30.029Z,101384.30
2019-03-25T06:02:02.094Z,101420.02
2019-03-25T06:04:34.427Z,101412.09
2019-03-25T06:07:06.760Z,101415.34
2019-03-25T06:09:38.986Z,101413.88
2019-03-25T06:12:16.707Z,101409.80
2019-03-25T06:14:51.077Z,101417.13
2019-03-25T06:17:23.117Z,101416.05
2019-03-25T06:20:01.446Z,101418.94
2019-03-25T06:22:33.527Z,101420.75
2019-03-25T06:25:09.525Z,101411.55
2019-03-25T06:27:48.509Z,101414.31
2019-03-25T06:30:20.847Z,101410.23
2019-03-25T06:32:53.926Z,101415.64
2019-03-25T06:35:26.341Z,101406.45
2019-03-25T06:37:58.475Z,101409.70
2019-03-25T06:40:30.552Z,101408.97
2019-03-25T06:43:02.548Z,101414.02
2019-03-25T06:45:34.633Z,101409.09
2019-03-25T06:48:06.941Z,101412.30
2019-03-25T06:50:38.888Z,101411.36
2019-03-25T06:53:10.963Z,101428.20
2019-03-25T06:55:43.096Z,101419.89
2019-03-25T06:58:15.306Z,101402.83
2019-03-25T07:00:47.416Z,101409.91
2019-03-25T07:03:19.614Z,101420.09
2019-03-25T07:05:51.766Z,101412.01
2019-03-25T07:08:23.877Z,101408.04
2019-03-25T07:10:56.089Z,101408.58
2019-03-25T07:13:29.174Z,101404.22
2019-03-25T07:16:01.291Z,101411.45
2019-03-25T07:18:33.443Z,101415.89
2019-03-25T07:21:05.613Z,101415.94
2019-03-25T07:23:37.636Z,101403.67
2019-03-25T07:26:09.736Z,101408.84
2019-03-25T07:28:41.721Z,101411.09
2019-03-25T07:31:13.834Z,101408.56
2019-03-25T07:33:45.887Z,101410.73
2019-03-25T07:36:17.961Z,101398.69
2019-03-25T07:38:50.033Z,101395.91
2019-03-25T07:41:22.127Z,101394.51
2019-03-25T07:43:54.469Z,101403.05
2019-03-25T07:46:26.543Z,101407.65
2019-03-25T07:48:58.768Z,101405.41
2019-03-25T07:51:30.716Z,101416.15
2019-03-25T07:54:02.833Z,101413.14
2019-03-25T07:56:34.882Z,101416.59
2019-03-25T07:59:06.943Z,101416.63
2019-03-25T08:01:39.173Z,101422.92
2019-03-25T08:04:11.335Z,101407.66
2019-03-25T08:06:43.528Z,101416.69
2019-03-25T08:09:15.710Z,101425.63
2019-03-25T08:11:47.831Z,101423.94
2019-03-25T08:14:19.840Z,101421.38
2019-03-25T08:16:51.905Z,101419.44
2019-03-25T08:19:24.005Z,101426.94
2019-03-25T08:21:56.139Z,101432.20
2019-03-25T08:24:28.455Z,101428.39
2019-03-25T08:27:00.538Z,101437.33
2019-03-25T08:29:32.850Z,101424.00
2019-03-25T08:32:04.919Z,101435.17
2019-03-25T08:34:37.249Z,101453.52
2019-03-25T08:37:09.418Z,101475.13
2019-03-25T08:39:41.534Z,101470.39
2019-03-25T08:42:13.521Z,101490.45
2019-03-25T08:44:45.674Z,101499.48
2019-03-25T08:47:17.736Z,101496.81
2019-03-25T08:49:49.852Z,101502.67
2019-03-25T08:52:21.942Z,101505.70
2019-03-25T08:54:54.090Z,101510.67
2019-03-25T08:57:26.243Z,101499.06
2019-03-25T08:59:58.204Z,101504.13
2019-03-25T09:02:30.226Z,101498.40
2019-03-25T09:05:02.385Z,101506.22
2019-03-25T09:07:34.501Z,101510.06
2019-03-25T09:10:06.810Z,101510.55
2019-03-25T09:12:38.969Z,101506.14
2019-03-25T09:15:13.029Z,101493.36
2019-03-25T09:17:45.119Z,101495.45
2019-03-25T09:20:17.953Z,101492.22
2019-03-25T09:22:50.735Z,101493.80
2019-03-25T09:25:23.340Z,101484.48
2019-03-25T09:27:55.450Z,101488.32
2019-03-25T09:31:22.227Z,101479.64
2019-03-25T09:33:54.249Z,101488.98
2019-03-25T09:36:26.332Z,101492.30
2019-03-25T09:38:58.358Z,101492.94
2019-03-25T09:41:30.376Z,101505.94
2019-03-25T09:44:02.438Z,101505.95
2019-03-25T09:46:34.348Z,101494.75
2019-03-25T09:49:06.559Z,101503.86
2019-03-25T09:51:38.846Z,101507.21
2019-03-25T09:54:13.873Z,101523.99
2019-03-25T09:56:45.986Z,101520.19
2019-03-25T09:59:18.029Z,101525.19
2019-03-25T10:01:50.214Z,101520.75
2019-03-25T10:04:22.297Z,101521.81
2019-03-25T10:06:57.712Z,101519.30
2019-03-25T10:09:29.816Z,101508.48
2019-03-25T10:12:01.905Z,101511.42
2019-03-25T10:14:33.965Z,101511.10
2019-03-25T10:17:06.005Z,101521.16
2019-03-25T10:19:38.151Z,101529.56
2019-03-25T10:22:10.186Z,101530.63
2019-03-25T10:24:42.348Z,101545.47
2019-03-25T10:27:15.409Z,101542.97
2019-03-25T10:29:47.565Z,101536.09
2019-03-25T10:32:19.727Z,101549.83
2019-03-25T10:34:51.906Z,101540.12
2019-03-25T10:37:24.040Z,101547.42
2019-03-25T10:39:56.054Z,101555.13
2019-03-25T10:42:28.019Z,101574.86
2019-03-25T10:45:00.372Z,101569.27
2019-03-25T10:47:32.443Z,101566.38
2019-03-25T10:50:05.614Z,101569.22
2019-03-25T10:52:37.616Z,101565.79
2019-03-25T10:55:10.359Z,101553.45
2019-03-25T10:57:44.504Z,101573.42
2019-03-25T11:00:18.174Z,101567.44
2019-03-25T11:02:51.071Z,101555.80
2019-03-25T11:05:24.303Z,101556.02
2019-03-25T11:07:59.473Z,101564.63
2019-03-25T11:10:37.929Z,101579.69
2019-03-25T11:13:07.477Z,101568.76
2019-03-25T11:15:41.629Z,101564.24
2019-03-25T11:18:14.254Z,101570.86
2019-03-25T11:20:47.247Z,101580.09
2019-03-25T11:23:19.348Z,101576.53
2019-03-25T11:25:53.071Z,101584.42
2019-03-25T11:28:26.452Z,101582.22
2019-03-25T11:31:02.652Z,101593.37
2019-03-25T11:33:36.761Z,101592.13
2019-03-25T11:36:09.028Z,101574.98
2019-03-25T11:38:41.707Z,101581.92
2019-03-25T11:41:13.980Z,101585.44
2019-03-25T11:43:47.483Z,101588.70
2019-03-25T11:46:20.380Z,101595.13
2019-03-25T11:48:53.777Z,101585.16
2019-03-25T11:51:26.142Z,101586.47
2019-03-25T11:54:00.742Z,101584.52
2019-03-25T11:56:34.141Z,101575.98
2019-03-25T11:59:07.072Z,101609.71
2019-03-25T12:01:40.343Z,101563.34
2019-03-25T12:04:12.762Z,101603.95
2019-03-25T12:06:45.511Z,101605.22
2019-03-25T12:09:18.187Z,101640.31
2019-03-25T12:11:50.401Z,101639.91
2019-03-25T12:14:22.460Z,101640.66
2019-03-25T12:16:54.790Z,101635.12
2019-03-25T12:19:27.086Z,101619.97
2019-03-25T12:21:59.279Z,101608.33
2019-03-25T12:24:31.512Z,101611.09
2019-03-25T12:27:04.417Z,101619.74
2019-03-25T12:29:36.607Z,101631.31
2019-03-25T12:32:08.715Z,101616.34
2019-03-25T12:34:41.081Z,101612.83
2019-03-25T12:37:13.223Z,101591.50
2019-03-25T12:39:46.372Z,101610.48
2019-03-25T12:42:20.015Z,101607.42
2019-03-25T12:44:52.739Z,101606.61
2019-03-25T12:47:25.427Z,101612.06
2019-03-25T12:49:58.734Z,101600.02
2019-03-25T12:52:34.860Z,101636.77
2019-03-25T12:55:12.073Z,101633.00
2019-03-25T12:57:44.613Z,101639.23
2019-03-25T13:00:21.333Z,101620.80
2019-03-25T13:02:54.978Z,101630.81
2019-03-25T13:05:30.954Z,101613.97
2019-03-25T13:08:03.327Z,101623.72
2019-03-25T13:10:36.251Z,101618.89
2019-03-25T13:13:08.601Z,101611.41
2019-03-25T13:15:40.926Z,101599.02
2019-03-25T13:18:13.270Z,101586.09
2019-03-25T13:20:45.921Z,101582.59
2019-03-25T13:23:18.091Z,101586.05
2019-03-25T13:25:53.276Z,101598.98
2019-03-25T13:28:26.206Z,101613.09
2019-03-25T13:30:58.808Z,101616.61
2019-03-25T13:33:31.041Z,101615.84
2019-03-25T13:36:03.547Z,101602.91
2019-03-25T13:38:35.846Z,101597.69
2019-03-25T13:41:08.401Z,101604.96
2019-03-25T13:43:41.227Z,101604.25
2019-03-25T13:46:13.807Z,101597.53
2019-03-25T13:48:47.078Z,101612.54
2019-03-25T13:51:19.314Z,101604.92
2019-03-25T13:53:52.086Z,101618.30
2019-03-25T13:56:24.330Z,101594.06
2019-03-25T13:58:56.456Z,101606.00
2019-03-25T14:01:28.578Z,101605.71
2019-03-25T14:04:00.851Z,101591.99
2019-03-25T14:06:32.999Z,101589.11
2019-03-25T14:09:06.346Z,101589.97
2019-03-25T14:11:38.469Z,101591.56
2019-03-25T14:14:10.688Z,101596.22
2019-03-25T14:16:43.140Z,101587.66
2019-03-25T14:19:19.286Z,101596.58
2019-03-25T14:21:51.561Z,101584.05
2019-03-25T14:24:24.462Z,101585.94
2019-03-25T14:26:56.570Z,101602.83
2019-03-25T14:29:29.140Z,101612.78
2019-03-25T14:32:03.066Z,101618.84
2019-03-25T14:34:44.382Z,101611.23
2019-03-25T14:37:09.309Z,101626.68
2019-03-25T14:39:41.663Z,101615.47
2019-03-25T14:42:14.914Z,101625.95
2019-03-25T14:44:47.226Z,101606.29
2019-03-25T14:47:19.365Z,101600.96
2019-03-25T14:49:51.564Z,101612.10
2019-03-25T14:52:23.629Z,101613.08
2019-03-25T14:54:55.746Z,101608.81
2019-03-25T14:57:27.873Z,101630.27
2019-03-25T15:00:00.024Z,101621.90
2019-03-25T15:02:32.131Z,101628.48
2019-03-25T15:05:04.492Z,101624.94
2019-03-25T15:07:36.700Z,101636.27
2019-03-25T15:10:09.663Z,101649.53
2019-03-25T15:12:41.796Z,101655.36
2019-03-25T15:15:14.717Z,101658.01
2019-03-25T15:17:47.053Z,101679.38
2019-03-25T15:20:19.530Z,101665.80
2019-03-25T15:22:51.810Z,101671.99
2019-03-25T15:25:24.132Z,101675.88
2019-03-25T15:27:56.285Z,101663.67
2019-03-25T15:30:35.790Z,101687.91
2019-03-25T15:33:02.311Z,101683.16
2019-03-25T15:35:34.757Z,101693.30
2019-03-25T15:38:06.992Z,101689.44
2019-03-25T15:40:39.246Z,101703.73
2019-03-25T15:43:11.481Z,101702.53
2019-03-25T15:45:43.604Z,101718.25
2019-03-25T15:48:15.831Z,101724.56
2019-03-25T15:50:47.819Z,101720.47
2019-03-25T15:53:19.922Z,101720.72
2019-03-25T15:55:51.989Z,101724.78
2019-03-25T15:58:26.341Z,101738.44
2019-03-25T16:00:58.048Z,101734.33
2019-03-25T16:03:30.518Z,101729.98
2019-03-25T16:06:02.637Z,101738.00
2019-03-25T16:08:34.758Z,101738.13
2019-03-25T16:11:07.913Z,101752.47
2019-03-25T16:13:39.987Z,101771.89
2019-03-25T16:16:12.085Z,101759.33
2019-03-25T16:18:44.862Z,101764.92
2019-03-25T16:21:16.932Z,101776.54
2019-03-25T16:23:49.083Z,101775.44
2019-03-25T16:26:21.223Z,101778.38
2019-03-25T16:28:53.323Z,101793.97
2019-03-25T16:31:25.513Z,101790.13
2019-03-25T16:33:57.605Z,101800.28
2019-03-25T16:36:29.738Z,101796.59
2019-03-25T16:39:01.713Z,101803.87
2019-03-25T16:41:33.786Z,101796.89
2019-03-25T16:44:06.012Z,101823.69
2019-03-25T16:46:38.602Z,101844.81
2019-03-25T16:49:10.886Z,101833.50
2019-03-25T16:51:43.153Z,101839.08
2019-03-25T16:54:15.246Z,101845.61
2019-03-25T16:56:47.357Z,101855.17
2019-03-25T16:59:19.479Z,101849.23
2019-03-25T17:01:51.579Z,101870.59
2019-03-25T17:04:23.828Z,101855.37
2019-03-25T17:06:56.005Z,101866.61
2019-03-25T17:09:28.099Z,101868.52
2019-03-25T17:12:00.553Z,101870.94
2019-03-25T17:14:32.735Z,101878.91
2019-03-25T17:17:04.856Z,101878.20
2019-03-25T17:19:36.940Z,101882.56
2019-03-25T17:22:09.234Z,101892.20
2019-03-25T17:24:41.641Z,101901.97
2019-03-25T17:27:13.850Z,101909.84
2019-03-25T17:29:46.154Z,101914.25
2019-03-25T17:32:18.271Z,101907.61
2019-03-25T17:34:50.419Z,101910.89
2019-03-25T17:37:22.579Z,101932.98
2019-03-25T17:39:54.808Z,101935.36
2019-03-25T17:42:26.986Z,101925.95
2019-03-25T17:44:59.062Z,101946.09
2019-03-25T17:47:31.161Z,101956.47
2019-03-25T17:50:03.312Z,101964.54
2019-03-25T17:52:35.454Z,101954.08
2019-03-25T17:55:08.142Z,101973.11
2019-03-25T17:57:40.248Z,101981.69
2019-03-25T18:00:13.829Z,101983.83
2019-03-25T18:02:46.106Z,101989.47
2019-03-25T18:05:18.205Z,101996.35
2019-03-25T18:07:50.512Z,101990.44
2019-03-25T18:10:22.690Z,101998.64
2019-03-25T18:12:54.748Z,102000.44
2019-03-25T18:15:26.920Z,102004.88
2019-03-25T18:17:59.010Z,102014.17
2019-03-25T18:20:31.116Z,102017.05
2019-03-25T18:23:03.322Z,102020.20
2019-03-25T18:25:39.602Z,102019.20
2019-03-25T18:28:22.087Z,102027.90
2019-03-25T18:30:54.465Z,102035.86
2019-03-25T18:33:26.813Z,102039.83
2019-03-25T18:35:59.054Z,102037.57
2019-03-25T18:38:31.302Z,102047.58
2019-03-25T18:41:03.862Z,102050.47
2019-03-25T18:43:36.015Z,102056.60
2019-03-25T18:46:08.240Z,102058.65
2019-03-25T18:48:42.076Z,102064.91
2019-03-25T18:51:14.213Z,102070.33
2019-03-25T18:53:46.745Z,102072.98
2019-03-25T18:56:18.907Z,102076.20
2019-03-25T18:58:50.943Z,102071.16
2019-03-25T19:01:23.674Z,102093.66
2019-03-25T19:03:56.330Z,102099.67
2019-03-25T19:06:29.194Z,102100.88
2019-03-25T19:09:01.572Z,102104.86
2019-03-25T19:11:33.997Z,102106.30
2019-03-25T19:14:06.047Z,102109.34
2019-03-25T19:16:38.225Z,102119.09
2019-03-25T19:19:29.169Z,102125.25
2019-03-25T19:22:01.480Z,102134.74
2019-03-25T19:24:37.382Z,102134.95
2019-03-25T19:27:09.159Z,102139.44
2019-03-25T19:29:41.327Z,102131.73
2019-03-25T19:32:13.544Z,102150.05
2019-03-25T19:35:20.055Z,102153.92
2019-03-25T19:37:20.816Z,102160.08
2019-03-25T19:40:04.058Z,102163.20
2019-03-25T19:42:36.306Z,102175.98
2019-03-25T19:45:09.195Z,102188.64
2019-03-25T19:47:43.890Z,102181.86
2019-03-25T19:50:17.228Z,102192.56
2019-03-25T19:52:49.497Z,102193.33
2019-03-25T19:55:21.528Z,102196.07
2019-03-25T19:57:53.680Z,102197.66
2019-03-25T20:00:38.494Z,102190.11
2019-03-25T20:03:10.718Z,102191.89
2019-03-25T20:05:42.872Z,102197.38
2019-03-25T20:08:15.032Z,102201.88
2019-03-25T20:10:47.118Z,102194.73
2019-03-25T20:13:19.191Z,102204.55
2019-03-25T20:15:51.426Z,102212.26
2019-03-25T20:18:23.582Z,102213.92
2019-03-25T20:20:55.706Z,102216.11
2019-03-25T20:23:27.803Z,102214.78
2019-03-25T20:25:59.945Z,102220.89
2019-03-25T20:28:32.026Z,102230.28
2019-03-25T20:31:14.463Z,102230.28
2019-03-25T20:33:46.589Z,102231.22
2019-03-25T20:36:18.751Z,102227.45
2019-03-25T20:38:54.086Z,102231.09
2019-03-25T20:41:26.305Z,102238.41
2019-03-25T20:43:58.607Z,102245.40
2019-03-25T20:46:30.776Z,102252.69
2019-03-25T20:49:03.084Z,102257.75
2019-03-25T20:51:39.063Z,102260.63
2019-03-25T20:54:11.341Z,102261.63
2019-03-25T20:56:43.790Z,102267.13
2019-03-25T20:59:18.568Z,102271.20
2019-03-25T21:01:50.839Z,102270.21
2019-03-25T21:04:22.972Z,102273.48
2019-03-25T21:06:57.613Z,102283.23
2019-03-25T21:09:31.847Z,102282.38
2019-03-25T21:12:04.051Z,102287.58
2019-03-25T21:14:36.162Z,102289.02
2019-03-25T21:17:08.379Z,102288.48
2019-03-25T21:19:40.674Z,102287.89
2019-03-25T21:22:13.340Z,102300.67
2019-03-25T21:24:45.545Z,102296.50
2019-03-25T21:27:17.831Z,102305.94
2019-03-25T21:29:50.196Z,102309.91
2019-03-25T21:32:22.506Z,102319.95
2019-03-25T21:34:54.677Z,102325.57
2019-03-25T21:37:29.492Z,102332.09
2019-03-25T21:40:01.772Z,102334.38
2019-03-25T21:42:35.203Z,102332.91
2019-03-25T21:45:08.135Z,102334.87
2019-03-25T21:47:40.515Z,102347.53
2019-03-25T21:50:13.274Z,102348.03
2019-03-25T21:52:45.392Z,102349.45
2019-03-25T21:55:17.527Z,102336.14
2019-03-25T21:57:51.867Z,102341.38
2019-03-25T22:00:23.870Z,102348.14
2019-03-25T22:02:56.223Z,102352.39
2019-03-25T22:05:31.426Z,102353.94
2019-03-25T22:08:03.537Z,102354.71
2019-03-25T22:10:35.657Z,102358.31
2019-03-25T22:13:07.911Z,102361.14
2019-03-25T22:15:40.106Z,102363.15
2019-03-25T22:18:19.109Z,102377.58
2019-03-25T22:20:51.150Z,102375.57
2019-03-25T22:23:25.118Z,102369.69
2019-03-25T22:25:57.171Z,102380.41
2019-03-25T22:28:29.243Z,102375.66
2019-03-25T22:31:01.375Z,102380.00
2019-03-25T22:33:33.421Z,102389.76
2019-03-25T22:36:05.595Z,102386.19
2019-03-25T22:38:37.661Z,102376.56
2019-03-25T22:41:09.794Z,102387.64
2019-03-25T22:43:41.793Z,102387.73
2019-03-25T22:46:16.639Z,102380.25
2019-03-25T22:48:48.864Z,102394.55
2019-03-25T22:51:21.028Z,102395.41
2019-03-25T22:53:53.113Z,102400.13
2019-03-25T22:56:25.267Z,102413.91
2019-03-25T22:58:57.426Z,102410.24
2019-03-25T23:01:31.346Z,102401.70
2019-03-25T23:04:03.581Z,102412.19
2019-03-25T23:09:09.179Z,102411.42
2019-03-25T23:11:41.318Z,102415.21
2019-03-25T23:14:13.391Z,102414.56
2019-03-25T23:16:45.655Z,102419.17
2019-03-25T23:19:17.897Z,102422.95
2019-03-25T23:21:49.991Z,102431.27
2019-03-25T23:24:22.093Z,102430.91
2019-03-25T23:26:54.227Z,102430.41
2019-03-25T23:29:26.454Z,102430.69
2019-03-25T23:31:58.711Z,102441.36
2019-03-25T23:34:30.960Z,102433.36
2019-03-25T23:37:03.192Z,102436.20
2019-03-25T23:39:35.338Z,102432.59
2019-03-25T23:42:07.498Z,102437.05
2019-03-25T23:44:39.756Z,102443.73
2019-03-25T23:47:11.973Z,102449.03
2019-03-25T23:49:44.109Z,102448.17
2019-03-25T23:52:16.347Z,102446.38
2019-03-25T23:54:48.501Z,102444.48
2019-03-25T23:57:20.678Z,102448.27
2019-03-25T23:59:52.951Z,102453.92
